createdAt,value
2019-03-01T00:01:26.814Z,47.20
2019-03-01T00:04:08.048Z,47.30
2019-03-01T00:06:49.934Z,47.30
2019-03-01T00:10:02.339Z,47.30
2019-03-01T00:13:24.756Z,47.20
2019-03-01T00:16:25.508Z,47.30
2019-03-01T00:19:21.710Z,47.50
2019-03-01T00:22:33.227Z,47.60
2019-03-01T00:25:27.966Z,47.60
2019-03-01T00:28:14.281Z,47.70
2019-03-01T00:31:29.846Z,47.80
2019-03-01T00:34:42.615Z,47.80
2019-03-01T00:37:55.137Z,47.80
2019-03-01T00:40:56.780Z,47.90
2019-03-01T00:44:00.430Z,47.90
2019-03-01T00:46:31.833Z,48.00
2019-03-01T00:49:03.124Z,48.00
2019-03-01T00:51:34.487Z,48.60
2019-03-01T00:54:05.840Z,48.00
2019-03-01T00:56:38.121Z,48.20
2019-03-01T00:59:09.441Z,48.30
2019-03-01T01:01:40.858Z,48.30
2019-03-01T01:04:12.266Z,48.30
2019-03-01T01:06:43.586Z,48.40
2019-03-01T01:09:14.966Z,49.00
2019-03-01T01:11:46.369Z,48.50
2019-03-01T01:14:18.721Z,48.70
2019-03-01T01:16:50.216Z,48.90
2019-03-01T01:19:23.413Z,49.40
2019-03-01T01:21:54.809Z,49.80
2019-03-01T01:24:26.297Z,50.20
2019-03-01T01:26:57.850Z,50.50
2019-03-01T01:29:29.433Z,51.00
2019-03-01T01:32:00.726Z,51.00
2019-03-01T01:34:32.415Z,51.20
2019-03-01T01:37:03.692Z,51.30
2019-03-01T01:39:35.098Z,51.60
2019-03-01T01:42:06.457Z,51.80
2019-03-01T01:44:37.870Z,51.90
2019-03-01T01:47:09.154Z,52.00
2019-03-01T01:49:40.581Z,52.30
2019-03-01T01:52:11.954Z,52.30
2019-03-01T01:54:43.258Z,52.50
2019-03-01T01:57:14.609Z,52.30
2019-03-01T01:59:45.913Z,52.40
2019-03-01T02:02:17.264Z,52.70
2019-03-01T02:04:48.662Z,52.80
2019-03-01T02:07:19.947Z,52.90
2019-03-01T02:09:51.363Z,53.00
2019-03-01T02:12:22.545Z,53.20
2019-03-01T02:14:53.900Z,53.20
2019-03-01T02:17:25.201Z,53.50
2019-03-01T02:19:56.698Z,53.60
2019-03-01T02:22:28.050Z,53.70
2019-03-01T02:24:59.414Z,54.30
2019-03-01T02:27:30.993Z,53.90
2019-03-01T02:30:03.219Z,53.90
2019-03-01T02:32:48.071Z,53.90
2019-03-01T02:35:26.615Z,53.80
2019-03-01T02:37:57.975Z,53.90
2019-03-01T02:40:29.410Z,53.80
2019-03-01T02:43:00.769Z,53.80
2019-03-01T02:45:33.105Z,54.00
2019-03-01T02:48:04.460Z,54.00
2019-03-01T02:50:35.845Z,54.00
2019-03-01T02:53:07.140Z,53.80
2019-03-01T02:55:38.445Z,54.70
2019-03-01T02:58:09.804Z,54.00
2019-03-01T03:00:41.141Z,54.10
2019-03-01T03:03:12.423Z,54.10
2019-03-01T03:06:08.924Z,54.20
2019-03-01T03:08:40.461Z,54.20
2019-03-01T03:11:11.909Z,54.20
2019-03-01T03:13:43.284Z,54.20
2019-03-01T03:16:14.803Z,54.20
2019-03-01T03:18:46.088Z,54.40
2019-03-01T03:21:18.461Z,54.40
2019-03-01T03:23:49.656Z,54.40
2019-03-01T03:26:20.994Z,54.50
2019-03-01T03:28:52.369Z,54.40
2019-03-01T03:31:23.734Z,54.50
2019-03-01T03:33:55.141Z,54.70
2019-03-01T03:36:26.639Z,54.70
2019-03-01T03:38:57.965Z,54.60
2019-03-01T03:41:29.411Z,54.60
2019-03-01T03:44:00.746Z,54.70
2019-03-01T03:46:32.043Z,54.60
2019-03-01T03:49:03.382Z,54.70
2019-03-01T03:51:34.609Z,54.70
2019-03-01T03:54:05.958Z,54.70
2019-03-01T03:56:37.379Z,54.70
2019-03-01T03:59:08.738Z,54.70
2019-03-01T04:01:40.194Z,54.70
2019-03-01T04:04:11.455Z,54.60
2019-03-01T04:06:42.970Z,54.90
2019-03-01T04:09:14.248Z,54.70
2019-03-01T04:11:45.669Z,54.70
2019-03-01T04:14:16.940Z,54.70
2019-03-01T04:16:48.342Z,54.70
2019-03-01T04:19:19.605Z,54.80
2019-03-01T04:21:51.011Z,54.90
2019-03-01T04:24:22.283Z,55.00
2019-03-01T04:26:53.685Z,55.00
2019-03-01T04:29:24.868Z,55.00
2019-03-01T04:31:56.084Z,55.00
2019-03-01T04:34:27.296Z,55.10
2019-03-01T04:36:58.720Z,55.60
2019-03-01T04:39:30.185Z,55.50
2019-03-01T04:42:01.484Z,55.50
2019-03-01T04:44:32.758Z,55.40
2019-03-01T04:47:04.210Z,55.50
2019-03-01T04:49:35.470Z,55.40
2019-03-01T04:52:31.249Z,55.50
2019-03-01T04:55:04.146Z,55.60
2019-03-01T04:57:35.513Z,55.50
2019-03-01T05:00:12.552Z,55.60
2019-03-01T05:02:44.765Z,55.80
2019-03-01T05:05:16.640Z,55.80
2019-03-01T05:07:48.075Z,55.90
2019-03-01T05:10:30.032Z,55.90
2019-03-01T05:13:01.468Z,55.90
2019-03-01T05:15:32.825Z,56.30
2019-03-01T05:18:04.192Z,56.70
2019-03-01T05:20:35.533Z,56.80
2019-03-01T05:23:07.031Z,56.80
2019-03-01T05:25:38.266Z,57.00
2019-03-01T05:28:09.619Z,57.00
2019-03-01T05:30:40.882Z,56.90
2019-03-01T05:33:15.311Z,57.10
2019-03-01T05:35:46.768Z,57.10
2019-03-01T05:38:21.694Z,57.10
2019-03-01T05:40:51.232Z,57.10
2019-03-01T05:43:22.570Z,57.10
2019-03-01T05:45:53.845Z,57.20
2019-03-01T05:48:25.152Z,57.30
2019-03-01T05:50:56.691Z,57.20
2019-03-01T05:53:28.015Z,57.20
2019-03-01T05:55:59.495Z,57.00
2019-03-01T05:58:38.903Z,57.10
2019-03-01T06:01:51.392Z,57.00
2019-03-01T06:04:26.670Z,57.10
2019-03-01T06:07:11.593Z,57.00
2019-03-01T06:09:59.757Z,56.90
2019-03-01T06:13:07.798Z,56.90
2019-03-01T06:16:01.195Z,56.70
2019-03-01T06:18:59.806Z,56.80
2019-03-01T06:22:24.129Z,56.90
2019-03-01T06:25:38.408Z,56.80
2019-03-01T06:28:40.000Z,56.60
2019-03-01T06:31:44.053Z,56.50
2019-03-01T06:34:56.547Z,56.50
2019-03-01T06:38:46.689Z,56.40
2019-03-01T06:41:48.682Z,56.30
2019-03-01T06:44:33.176Z,56.30
2019-03-01T06:47:42.255Z,56.40
2019-03-01T06:50:44.850Z,56.40
2019-03-01T06:53:16.322Z,56.40
2019-03-01T06:56:02.047Z,57.00
2019-03-01T06:58:38.458Z,56.60
2019-03-01T07:01:15.886Z,56.60
2019-03-01T07:03:55.950Z,56.70
2019-03-01T07:06:29.491Z,56.60
2019-03-01T07:09:01.040Z,56.60
2019-03-01T07:11:34.114Z,56.70
2019-03-01T07:14:16.879Z,56.70
2019-03-01T07:16:48.368Z,56.80
2019-03-01T07:19:19.585Z,56.80
2019-03-01T07:21:50.873Z,56.90
2019-03-01T07:24:22.256Z,56.90
2019-03-01T07:26:53.675Z,56.90
2019-03-01T07:29:25.108Z,56.80
2019-03-01T07:31:56.449Z,56.90
2019-03-01T07:34:39.664Z,56.80
2019-03-01T07:39:49.056Z,56.90
2019-03-01T07:42:20.468Z,57.00
2019-03-01T07:44:51.700Z,57.00
2019-03-01T07:47:22.965Z,56.90
2019-03-01T07:49:54.339Z,56.70
2019-03-01T07:52:25.665Z,56.70
2019-03-01T07:54:56.979Z,56.90
2019-03-01T07:57:28.299Z,56.80
2019-03-01T07:59:59.569Z,56.80
2019-03-01T08:02:30.907Z,56.80
2019-03-01T08:05:04.062Z,56.90
2019-03-01T08:07:36.403Z,56.70
2019-03-01T08:10:09.576Z,56.60
2019-03-01T08:12:42.509Z,56.70
2019-03-01T08:15:15.144Z,56.50
2019-03-01T08:17:46.485Z,56.50
2019-03-01T08:20:17.906Z,56.30
2019-03-01T08:22:49.736Z,56.10
2019-03-01T08:25:23.429Z,56.00
2019-03-01T08:27:54.265Z,56.10
2019-03-01T08:30:25.631Z,56.00
2019-03-01T08:32:56.926Z,55.90
2019-03-01T08:35:32.092Z,55.40
2019-03-01T08:38:01.277Z,55.20
2019-03-01T08:40:32.709Z,55.40
2019-03-01T08:43:04.010Z,55.20
2019-03-01T08:45:35.425Z,55.20
2019-03-01T08:48:06.686Z,55.10
2019-03-01T08:50:37.984Z,55.00
2019-03-01T08:55:49.212Z,54.70
2019-03-01T08:58:20.472Z,55.00
2019-03-01T09:00:59.359Z,55.10
2019-03-01T09:03:33.189Z,54.30
2019-03-01T09:06:05.434Z,54.20
2019-03-01T09:08:36.717Z,54.20
2019-03-01T09:11:09.393Z,53.30
2019-03-01T09:13:41.234Z,53.50
2019-03-01T09:16:12.557Z,53.50
2019-03-01T09:18:46.639Z,53.70
2019-03-01T09:21:16.847Z,53.60
2019-03-01T09:23:52.119Z,53.50
2019-03-01T09:26:21.317Z,53.50
2019-03-01T09:28:53.625Z,53.50
2019-03-01T09:31:25.028Z,53.40
2019-03-01T09:33:57.293Z,53.30
2019-03-01T09:36:35.290Z,53.00
2019-03-01T09:39:09.100Z,52.90
2019-03-01T09:41:41.617Z,52.80
2019-03-01T09:44:13.042Z,53.00
2019-03-01T09:46:44.558Z,53.20
2019-03-01T09:49:15.902Z,53.20
2019-03-01T09:51:59.470Z,53.20
2019-03-01T09:54:42.295Z,53.30
2019-03-01T09:57:25.192Z,53.30
2019-03-01T09:59:56.423Z,53.20
2019-03-01T10:02:27.992Z,52.90
2019-03-01T10:05:10.923Z,52.60
2019-03-01T10:07:42.376Z,52.70
2019-03-01T10:10:25.391Z,53.80
2019-03-01T10:13:09.031Z,53.20
2019-03-01T10:15:41.141Z,52.80
2019-03-01T10:18:13.744Z,52.50
2019-03-01T10:20:45.164Z,52.00
2019-03-01T10:23:16.587Z,51.50
2019-03-01T10:25:47.953Z,51.60
2019-03-01T10:28:19.276Z,51.40
2019-03-01T10:30:50.679Z,51.60
2019-03-01T10:33:33.975Z,51.80
2019-03-01T10:36:05.344Z,52.20
2019-03-01T10:38:48.642Z,51.80
2019-03-01T10:41:31.830Z,51.60
2019-03-01T10:44:15.345Z,51.20
2019-03-01T10:47:01.724Z,50.80
2019-03-01T10:49:45.541Z,51.00
2019-03-01T10:52:16.925Z,50.80
2019-03-01T10:54:48.384Z,51.10
2019-03-01T10:57:20.597Z,51.20
2019-03-01T10:59:51.937Z,51.00
2019-03-01T11:02:23.314Z,51.70
2019-03-01T11:04:54.790Z,50.50
2019-03-01T11:07:26.144Z,50.30
2019-03-01T11:09:58.281Z,50.00
2019-03-01T11:12:29.557Z,49.80
2019-03-01T11:15:00.941Z,50.80
2019-03-01T11:17:33.414Z,50.50
2019-03-01T11:20:05.890Z,49.80
2019-03-01T11:22:37.240Z,49.00
2019-03-01T11:27:53.199Z,48.20
2019-03-01T11:30:26.924Z,47.30
2019-03-01T11:33:10.475Z,47.50
2019-03-01T11:35:42.089Z,47.50
2019-03-01T11:38:13.465Z,47.40
2019-03-01T11:40:44.921Z,46.90
2019-03-01T11:43:16.753Z,47.00
2019-03-01T11:45:48.169Z,47.50
2019-03-01T11:48:20.425Z,47.40
2019-03-01T11:50:51.835Z,47.30
2019-03-01T11:53:23.160Z,47.40
2019-03-01T11:55:55.894Z,47.50
2019-03-01T11:58:27.333Z,47.30
2019-03-01T12:00:58.738Z,47.70
2019-03-01T12:03:30.409Z,47.80
2019-03-01T12:06:01.923Z,47.80
2019-03-01T12:08:33.436Z,47.90
2019-03-01T12:11:04.914Z,47.40
2019-03-01T12:13:36.341Z,47.00
2019-03-01T12:16:07.846Z,47.10
2019-03-01T12:18:39.145Z,47.40
2019-03-01T12:21:11.480Z,47.20
2019-03-01T12:23:42.874Z,47.10
2019-03-01T12:26:14.164Z,47.10
2019-03-01T12:28:57.604Z,46.80
2019-03-01T12:31:41.249Z,46.50
2019-03-01T12:34:12.687Z,46.50
2019-03-01T12:36:44.620Z,46.70
2019-03-01T12:39:16.145Z,46.70
2019-03-01T12:41:47.569Z,46.60
2019-03-01T12:44:29.106Z,46.70
2019-03-01T12:47:00.631Z,46.80
2019-03-01T12:49:31.930Z,46.80
2019-03-01T12:52:03.245Z,47.00
2019-03-01T12:54:34.515Z,47.00
2019-03-01T12:57:06.023Z,47.20
2019-03-01T12:59:37.410Z,47.10
2019-03-01T13:02:08.764Z,47.30
2019-03-01T13:04:40.203Z,47.20
2019-03-01T13:07:13.217Z,47.20
2019-03-01T13:09:44.654Z,47.20
2019-03-01T13:12:16.969Z,47.10
2019-03-01T13:14:48.327Z,47.00
2019-03-01T13:17:19.939Z,47.10
2019-03-01T13:19:51.348Z,47.60
2019-03-01T13:22:24.771Z,48.40
2019-03-01T13:24:55.762Z,48.80
2019-03-01T13:27:27.121Z,49.40
2019-03-01T13:30:10.637Z,49.60
2019-03-01T13:32:42.041Z,50.00
2019-03-01T13:35:13.681Z,50.90
2019-03-01T13:37:45.074Z,51.20
2019-03-01T13:40:17.233Z,51.50
2019-03-01T13:42:50.718Z,51.60
2019-03-01T13:45:22.773Z,52.30
2019-03-01T13:47:54.199Z,52.40
2019-03-01T13:50:25.584Z,52.90
2019-03-01T13:52:56.903Z,53.20
2019-03-01T13:55:28.250Z,53.40
2019-03-01T13:57:59.690Z,53.20
2019-03-01T14:00:31.109Z,53.20
2019-03-01T14:03:02.494Z,53.20
2019-03-01T14:05:33.833Z,53.00
2019-03-01T14:08:09.087Z,52.90
2019-03-01T14:10:41.907Z,53.10
2019-03-01T14:13:14.450Z,52.90
2019-03-01T14:15:45.632Z,53.00
2019-03-01T14:18:17.002Z,53.00
2019-03-01T14:20:48.602Z,52.90
2019-03-01T14:23:30.417Z,52.90
2019-03-01T14:26:01.665Z,53.00
2019-03-01T14:28:33.044Z,53.20
2019-03-01T14:31:16.125Z,53.10
2019-03-01T14:33:58.991Z,52.90
2019-03-01T14:36:30.289Z,52.90
2019-03-01T14:39:03.509Z,52.90
2019-03-01T14:41:36.058Z,53.10
2019-03-01T14:44:07.387Z,53.30
2019-03-01T14:46:39.755Z,53.60
2019-03-01T14:49:11.158Z,52.90
2019-03-01T14:51:46.489Z,52.50
2019-03-01T14:54:15.564Z,52.50
2019-03-01T14:56:50.366Z,52.90
2019-03-01T15:00:00.994Z,53.60
2019-03-01T15:03:01.013Z,53.20
2019-03-01T15:05:32.427Z,53.50
2019-03-01T15:08:06.459Z,53.80
2019-03-01T15:10:36.870Z,54.10
2019-03-01T15:13:19.602Z,54.40
2019-03-01T15:15:51.188Z,54.60
2019-03-01T15:18:22.546Z,54.70
2019-03-01T15:21:05.378Z,54.70
2019-03-01T15:23:36.765Z,54.70
2019-03-01T15:26:08.129Z,54.80
2019-03-01T15:28:55.327Z,54.90
2019-03-01T15:31:25.561Z,55.00
2019-03-01T15:33:56.896Z,55.10
2019-03-01T15:36:28.233Z,55.40
2019-03-01T15:38:59.583Z,55.50
2019-03-01T15:41:31.289Z,55.90
2019-03-01T15:44:02.657Z,55.70
2019-03-01T15:46:35.378Z,55.70
2019-03-01T15:49:06.654Z,55.80
2019-03-01T15:51:39.041Z,55.80
2019-03-01T15:54:10.464Z,55.80
2019-03-01T15:56:53.572Z,55.80
2019-03-01T15:59:25.174Z,55.70
2019-03-01T16:02:08.520Z,55.80
2019-03-01T16:04:41.909Z,55.70
2019-03-01T16:07:12.996Z,55.70
2019-03-01T16:09:44.267Z,55.80
2019-03-01T16:12:15.636Z,56.10
2019-03-01T16:14:46.973Z,56.20
2019-03-01T16:17:21.923Z,56.10
2019-03-01T16:19:53.395Z,56.30
2019-03-01T16:22:36.798Z,56.50
2019-03-01T16:25:09.733Z,56.50
2019-03-01T16:27:41.109Z,56.50
2019-03-01T16:30:14.538Z,56.60
2019-03-01T16:32:50.383Z,56.70
2019-03-01T16:35:21.702Z,56.70
2019-03-01T16:37:53.430Z,56.70
2019-03-01T16:40:24.777Z,56.90
2019-03-01T16:42:56.074Z,57.00
2019-03-01T16:45:27.488Z,57.10
2019-03-01T16:48:00.803Z,57.30
2019-03-01T16:50:31.836Z,57.30
2019-03-01T16:53:15.354Z,57.40
2019-03-01T16:55:46.739Z,57.40
2019-03-01T16:58:18.098Z,57.60
2019-03-01T17:00:50.742Z,57.70
2019-03-01T17:03:22.576Z,57.80
2019-03-01T17:05:55.136Z,57.80
2019-03-01T17:08:26.511Z,57.90
2019-03-01T17:10:57.860Z,57.90
2019-03-01T17:13:41.474Z,57.90
2019-03-01T17:16:23.645Z,57.90
2019-03-01T17:19:07.953Z,58.00
2019-03-01T17:21:40.322Z,58.00
2019-03-01T17:24:23.870Z,58.00
2019-03-01T17:27:06.648Z,57.90
2019-03-01T17:29:39.038Z,57.90
2019-03-01T17:32:11.409Z,57.90
2019-03-01T17:34:46.425Z,57.90
2019-03-01T17:37:17.897Z,57.80
2019-03-01T17:42:28.106Z,57.90
2019-03-01T17:45:12.662Z,58.10
2019-03-01T17:47:45.441Z,58.10
2019-03-01T17:50:17.601Z,58.20
2019-03-01T17:53:01.669Z,58.30
2019-03-01T17:55:44.996Z,58.40
2019-03-01T17:58:19.053Z,58.10
2019-03-01T18:03:38.618Z,58.10
2019-03-01T18:06:22.013Z,58.10
2019-03-01T18:08:53.665Z,58.40
2019-03-01T18:11:26.129Z,58.40
2019-03-01T18:14:00.811Z,58.40
2019-03-01T18:16:30.814Z,58.40
2019-03-01T18:19:13.862Z,58.40
2019-03-01T18:21:49.588Z,58.50
2019-03-01T18:24:33.640Z,58.50
2019-03-01T18:27:18.724Z,58.60
2019-03-01T18:30:11.339Z,58.80
2019-03-01T18:33:03.432Z,58.90
2019-03-01T18:35:34.731Z,58.80
2019-03-01T18:38:06.128Z,58.80
2019-03-01T18:40:37.550Z,58.80
2019-03-01T18:43:09.817Z,58.70
2019-03-01T18:45:43.103Z,58.80
2019-03-01T18:48:15.632Z,58.90
2019-03-01T18:50:47.046Z,58.80
2019-03-01T18:53:18.378Z,58.70
2019-03-01T18:55:52.778Z,58.80
2019-03-01T18:58:22.709Z,58.90
2019-03-01T19:00:54.191Z,59.10
2019-03-01T19:03:25.549Z,59.20
2019-03-01T19:05:56.888Z,59.10
2019-03-01T19:08:28.216Z,59.20
2019-03-01T19:11:11.702Z,59.20
2019-03-01T19:13:55.244Z,59.10
2019-03-01T19:16:38.201Z,59.30
2019-03-01T19:19:24.012Z,59.30
2019-03-01T19:22:05.587Z,59.20
2019-03-01T19:24:50.054Z,59.30
2019-03-01T19:27:34.150Z,59.40
2019-03-01T19:30:17.542Z,59.40
2019-03-01T19:33:02.249Z,59.50
2019-03-01T19:35:46.489Z,59.60
2019-03-01T19:38:29.665Z,59.60
2019-03-01T19:41:12.478Z,59.70
2019-03-01T19:43:57.576Z,59.60
2019-03-01T19:46:40.266Z,59.50
2019-03-01T19:49:23.926Z,59.50
2019-03-01T19:52:09.435Z,59.50
2019-03-01T19:54:52.246Z,60.20
2019-03-01T19:57:36.355Z,59.70
2019-03-01T20:00:20.573Z,59.70
2019-03-01T20:03:06.614Z,59.70
2019-03-01T20:05:37.386Z,59.90
2019-03-01T20:08:20.816Z,60.70
2019-03-01T20:11:05.306Z,60.00
2019-03-01T20:13:50.542Z,59.90
2019-03-01T20:16:33.517Z,60.10
2019-03-01T20:19:17.080Z,60.10
2019-03-01T20:22:02.215Z,60.10
2019-03-01T20:24:45.388Z,60.20
2019-03-01T20:27:29.274Z,60.40
2019-03-01T20:30:30.410Z,60.40
2019-03-01T20:33:14.902Z,60.50
2019-03-01T20:36:00.250Z,60.50
2019-03-01T20:38:46.223Z,60.60
2019-03-01T20:41:29.694Z,60.70
2019-03-01T20:44:14.727Z,61.00
2019-03-01T20:46:58.562Z,61.10
2019-03-01T20:49:41.826Z,60.90
2019-03-01T20:52:24.880Z,61.00
2019-03-01T20:55:08.158Z,61.00
2019-03-01T20:57:52.197Z,61.10
2019-03-01T21:00:35.413Z,61.20
2019-03-01T21:03:18.287Z,61.20
2019-03-01T21:06:04.654Z,61.30
2019-03-01T21:08:46.463Z,61.30
2019-03-01T21:11:30.078Z,61.30
2019-03-01T21:14:11.655Z,61.30
2019-03-01T21:16:54.493Z,61.40
2019-03-01T21:19:37.452Z,61.50
2019-03-01T21:22:20.399Z,61.50
2019-03-01T21:25:04.609Z,61.40
2019-03-01T21:27:48.493Z,61.40
2019-03-01T21:30:31.893Z,61.50
2019-03-01T21:33:13.692Z,61.40
2019-03-01T21:35:56.790Z,61.50
2019-03-01T21:38:38.488Z,61.50
2019-03-01T21:41:21.329Z,61.70
2019-03-01T21:44:07.647Z,61.80
2019-03-01T21:46:47.942Z,61.90
2019-03-01T21:49:31.482Z,61.80
2019-03-01T21:52:14.276Z,62.00
2019-03-01T21:54:55.889Z,61.90
2019-03-01T21:57:39.581Z,62.00
2019-03-01T22:00:25.224Z,62.10
2019-03-01T22:03:07.649Z,62.10
2019-03-01T22:05:50.759Z,62.30
2019-03-01T22:08:33.806Z,62.30
2019-03-01T22:11:17.285Z,62.30
2019-03-01T22:14:00.956Z,62.30
2019-03-01T22:16:43.953Z,62.40
2019-03-01T22:19:30.448Z,62.40
2019-03-01T22:22:12.436Z,62.50
2019-03-01T22:24:58.597Z,62.50
2019-03-01T22:27:41.050Z,62.50
2019-03-01T22:30:24.461Z,62.50
2019-03-01T22:33:08.811Z,62.30
2019-03-01T22:35:52.088Z,62.00
2019-03-01T22:38:37.698Z,61.70
2019-03-01T22:41:20.593Z,61.30
2019-03-01T22:44:02.669Z,60.60
2019-03-01T22:46:45.841Z,60.70
2019-03-01T22:49:31.697Z,60.70
2019-03-01T22:52:13.382Z,60.70
2019-03-01T22:54:57.765Z,60.70
2019-03-01T22:57:40.688Z,60.70
2019-03-01T23:00:25.497Z,60.60
2019-03-01T23:03:10.553Z,60.80
2019-03-01T23:05:53.878Z,60.90
2019-03-01T23:08:36.750Z,60.70
2019-03-01T23:11:20.199Z,60.60
2019-03-01T23:14:03.868Z,60.70
2019-03-01T23:16:50.755Z,60.60
2019-03-01T23:19:32.326Z,60.60
2019-03-01T23:22:15.684Z,60.70
2019-03-01T23:24:58.530Z,60.70
2019-03-01T23:27:40.109Z,60.50
2019-03-01T23:30:25.822Z,60.70
2019-03-01T23:33:08.778Z,61.00
2019-03-01T23:35:53.020Z,61.00
2019-03-01T23:38:36.386Z,60.90
2019-03-01T23:41:19.353Z,60.70
2019-03-01T23:44:06.271Z,60.60
2019-03-01T23:46:47.919Z,60.50
2019-03-01T23:49:31.297Z,60.40
2019-03-01T23:52:14.125Z,60.50
2019-03-01T23:54:57.454Z,60.50
2019-03-01T23:57:41.930Z,60.70
